Aérodrome :
LOGIN :

S'inscrire | Disclaimer

   EN    FR    IT 

 










Légende :    VFR   VFR Marginal   IFR   IFR Intensif   IFR Très Intensif
Visi : 
Plafond : 
>= 8 km
>= 3000ft
5 à 8 km
1000 à 3000 ft
1500m à 5 km
500 à 1000 ft
800 à 1500m
200 à 500 ft
< 800m
< 200 ft
Symboles :   Orages  Brouillard  Fortes neiges  Fortes précipitations  Vent > 20 kt
SIGMETs :   Divers  Orages  Givrage  Turbulence  Onde Orograph.  Cendres Volcan.






- Altitude de l'aérodrome : 147 ft
- Code IATA : DUS


EDDL - Düsseldorf Int.

DERNIER METAR :
  • 210220Z VRB01KT 6000 SCT004 BKN030 12/12 Q1011 TEMPO 4000 BR BKN004

METARs EXPIRÉS :
  • 210150Z 32003KT 8000 SCT009 BKN030 12/12 Q1010 NOSIG
  • 210120Z VRB01KT 9000 FEW010 BKN020 12/12 Q1011 NOSIG
  • 210050Z VRB02KT 9000 FEW010 BKN020 12/12 Q1010 NOSIG
  • 210020Z 10004KT 9000 SCT035 12/11 Q1010 NOSIG
  • 202350Z 08005KT 050V110 9000 FEW009 SCT035 12/12 Q1010 NOSIG

TAF TAF EDDL
Valide du 21 à 00h jusqu'au 22 à 06h UTC


202300Z 2100/2206 02005KT 9999 SCT025
PROB30
TEMPO 2100/2107 3000 BR BKN007
BECMG 2102/2105 17005KT
BECMG 2108/2110 20012KT
TEMPO 2112/2115 21015G25KT
BECMG 2117/2120 19007KT



MET'MAP, la Météo Aéronautique d'un coup d'oeil ! - Copyright ORBIFLY Décembre 2007 - Disclaimer

ORBIFLY MET'MAP TEAM :

Programmation & Développement : Alexandra Zaïnal
Conception & Développement : Baudouin d'Aumeries
Co-Programmation & Développement : Marc-Olivier Méhu
Soutien technique & logistique : Manuel Goepfert

Contact : metmap@orbifly.com




SOURCES & CREDITS :

   NOAA